createdAt,value
2018-07-06T00:00:06.281Z,0
2018-07-06T00:01:05.528Z,0
2018-07-06T00:02:06.285Z,0
2018-07-06T00:03:05.778Z,0
2018-07-06T00:04:06.027Z,0
2018-07-06T00:05:06.038Z,0
2018-07-06T00:06:06.408Z,0
2018-07-06T00:07:05.778Z,0
2018-07-06T00:08:06.289Z,0
2018-07-06T00:09:06.043Z,0
2018-07-06T00:10:06.031Z,0
2018-07-06T00:11:06.302Z,0
2018-07-06T00:12:05.781Z,0
2018-07-06T00:13:06.058Z,0
2018-07-06T00:14:05.534Z,0
2018-07-06T00:15:06.032Z,0
2018-07-06T00:16:06.293Z,0
2018-07-06T00:17:05.797Z,0
2018-07-06T00:18:06.318Z,0
2018-07-06T00:19:06.045Z,0
2018-07-06T00:20:06.094Z,0
2018-07-06T00:21:06.345Z,0
2018-07-06T00:22:06.316Z,0
2018-07-06T00:23:05.802Z,0
2018-07-06T00:24:06.062Z,0
2018-07-06T00:25:06.048Z,0
2018-07-06T00:26:06.312Z,0
2018-07-06T00:27:07.456Z,0
2018-07-06T00:28:05.803Z,0
2018-07-06T00:29:06.049Z,0
2018-07-06T00:30:06.313Z,0
2018-07-06T00:31:06.065Z,0
2018-07-06T00:32:06.083Z,0
2018-07-06T00:33:06.317Z,0
2018-07-06T00:34:06.315Z,0
2018-07-06T00:35:06.066Z,0
2018-07-06T00:36:06.325Z,0
2018-07-06T00:37:06.067Z,0
2018-07-06T00:38:06.338Z,0
2018-07-06T00:39:06.065Z,0
2018-07-06T00:40:06.089Z,0
2018-07-06T00:41:06.324Z,0
2018-07-06T00:42:05.833Z,0
2018-07-06T00:43:05.818Z,0
2018-07-06T00:44:06.086Z,0
2018-07-06T00:45:06.078Z,0
2018-07-06T00:46:05.850Z,0
2018-07-06T00:47:06.090Z,0
2018-07-06T00:48:06.081Z,0
2018-07-06T00:49:06.082Z,0
2018-07-06T00:50:06.082Z,0
2018-07-06T00:51:06.099Z,0
2018-07-06T00:52:06.327Z,0
2018-07-06T00:53:06.335Z,0
2018-07-06T00:54:06.351Z,0
2018-07-06T00:55:06.116Z,0
2018-07-06T00:56:06.097Z,0
2018-07-06T00:57:07.717Z,0
2018-07-06T00:58:05.855Z,0
2018-07-06T00:59:06.367Z,0
2018-07-06T01:00:06.115Z,0
2018-07-06T01:01:05.864Z,0
2018-07-06T01:02:05.970Z,0
2018-07-06T01:03:05.860Z,0
2018-07-06T01:04:06.360Z,0
2018-07-06T01:05:05.846Z,0
2018-07-06T01:06:06.117Z,0
2018-07-06T01:07:06.139Z,0
2018-07-06T01:08:06.364Z,0
2018-07-06T01:09:05.870Z,0
2018-07-06T01:10:06.229Z,0
2018-07-06T01:11:06.125Z,0
2018-07-06T01:12:05.863Z,0
2018-07-06T01:13:05.870Z,0
2018-07-06T01:14:06.129Z,0
2018-07-06T01:15:06.137Z,0
2018-07-06T01:16:06.141Z,0
2018-07-06T01:17:05.900Z,0
2018-07-06T01:18:06.382Z,0
2018-07-06T01:19:06.152Z,0
2018-07-06T01:20:06.133Z,0
2018-07-06T01:21:06.381Z,0
2018-07-06T01:22:06.384Z,0
2018-07-06T01:23:05.883Z,0
2018-07-06T01:24:05.873Z,0
2018-07-06T01:25:06.383Z,0
2018-07-06T01:26:06.135Z,0
2018-07-06T01:27:05.630Z,0
2018-07-06T01:28:06.137Z,0
2018-07-06T01:29:06.410Z,0
2018-07-06T01:30:06.144Z,0
2018-07-06T01:31:06.143Z,0
2018-07-06T01:32:05.893Z,0
2018-07-06T01:33:05.891Z,0
2018-07-06T01:34:05.900Z,0
2018-07-06T01:35:06.392Z,0
2018-07-06T01:36:06.417Z,0
2018-07-06T01:37:06.152Z,0
2018-07-06T01:38:06.400Z,0
2018-07-06T01:39:06.150Z,0
2018-07-06T01:40:05.907Z,0
2018-07-06T01:41:06.148Z,0
2018-07-06T01:42:06.177Z,0
2018-07-06T01:43:06.422Z,0
2018-07-06T01:44:05.720Z,0
2018-07-06T01:45:06.180Z,0
2018-07-06T01:46:05.666Z,0
2018-07-06T01:47:05.919Z,0
2018-07-06T01:48:05.906Z,0
2018-07-06T01:49:06.162Z,0
2018-07-06T01:50:06.170Z,0
2018-07-06T01:51:06.165Z,0
2018-07-06T01:52:06.160Z,0
2018-07-06T01:53:06.172Z,0
2018-07-06T01:54:06.163Z,0
2018-07-06T01:55:06.427Z,0
2018-07-06T01:56:05.654Z,0
2018-07-06T01:57:05.921Z,0
2018-07-06T01:58:05.924Z,0
2018-07-06T01:59:06.173Z,0
2018-07-06T02:00:06.465Z,0
2018-07-06T02:01:05.668Z,0
2018-07-06T02:02:06.432Z,0
2018-07-06T02:03:06.195Z,0
2018-07-06T02:04:05.924Z,0
2018-07-06T02:05:05.928Z,0
2018-07-06T02:06:06.448Z,0
2018-07-06T02:07:06.192Z,0
2018-07-06T02:08:06.181Z,0
2018-07-06T02:09:05.923Z,0
2018-07-06T02:10:06.179Z,0
2018-07-06T02:11:05.697Z,0
2018-07-06T02:12:06.189Z,0
2018-07-06T02:13:06.437Z,0
2018-07-06T02:14:05.927Z,0
2018-07-06T02:15:06.475Z,0
2018-07-06T02:16:06.187Z,0
2018-07-06T02:17:06.178Z,0
2018-07-06T02:18:06.439Z,0
2018-07-06T02:19:05.944Z,0
2018-07-06T02:20:06.207Z,0
2018-07-06T02:21:05.937Z,0
2018-07-06T02:22:06.199Z,0
2018-07-06T02:23:06.441Z,0
2018-07-06T02:24:05.960Z,0
2018-07-06T02:25:05.945Z,0
2018-07-06T02:26:05.973Z,0
2018-07-06T02:27:06.198Z,0
2018-07-06T02:28:05.959Z,0
2018-07-06T02:29:06.207Z,0
2018-07-06T02:30:06.213Z,0
2018-07-06T02:31:06.491Z,0
2018-07-06T02:32:06.228Z,0
2018-07-06T02:33:06.252Z,0
2018-07-06T02:34:06.207Z,0
2018-07-06T02:35:06.231Z,0
2018-07-06T02:36:06.214Z,0
2018-07-06T02:37:06.230Z,0
2018-07-06T02:38:06.207Z,0
2018-07-06T02:39:06.279Z,0
2018-07-06T02:40:06.203Z,0
2018-07-06T02:41:06.222Z,0
2018-07-06T02:42:06.491Z,0
2018-07-06T02:43:06.482Z,0
2018-07-06T02:44:06.492Z,0
2018-07-06T02:45:06.235Z,0
2018-07-06T02:46:05.974Z,0
2018-07-06T02:47:06.238Z,0
2018-07-06T02:48:06.495Z,0
2018-07-06T02:49:06.479Z,0
2018-07-06T02:50:06.221Z,0
2018-07-06T02:51:06.221Z,0
2018-07-06T02:52:06.497Z,0
2018-07-06T02:53:06.253Z,0
2018-07-06T02:54:06.497Z,0
2018-07-06T02:55:06.652Z,0
2018-07-06T02:56:06.241Z,0
2018-07-06T02:57:06.226Z,0
2018-07-06T02:58:06.246Z,4
2018-07-06T02:59:05.996Z,4
2018-07-06T03:00:06.232Z,4
2018-07-06T03:01:06.516Z,0
2018-07-06T03:02:06.797Z,4
2018-07-06T03:03:06.497Z,4
2018-07-06T03:04:05.995Z,4
2018-07-06T03:05:06.250Z,4
2018-07-06T03:06:05.728Z,4
2018-07-06T03:07:05.754Z,4
2018-07-06T03:08:06.248Z,8
2018-07-06T03:09:06.502Z,8
2018-07-06T03:10:06.664Z,8
2018-07-06T03:11:06.244Z,8
2018-07-06T03:12:06.018Z,8
2018-07-06T03:13:05.743Z,12
2018-07-06T03:14:06.208Z,12
2018-07-06T03:15:06.005Z,16
2018-07-06T03:16:06.493Z,20
2018-07-06T03:17:06.284Z,20
2018-07-06T03:18:06.003Z,24
2018-07-06T03:19:06.006Z,28
2018-07-06T03:20:06.241Z,28
2018-07-06T03:21:06.015Z,28
2018-07-06T03:22:06.493Z,32
2018-07-06T03:23:06.294Z,40
2018-07-06T03:24:06.260Z,40
2018-07-06T03:25:06.510Z,40
2018-07-06T03:26:05.995Z,40
2018-07-06T03:27:06.261Z,40
2018-07-06T03:28:05.943Z,36
2018-07-06T03:29:06.256Z,36
2018-07-06T03:30:06.317Z,40
2018-07-06T03:31:06.268Z,36
2018-07-06T03:32:06.527Z,32
2018-07-06T03:33:06.008Z,36
2018-07-06T03:34:05.997Z,32
2018-07-06T03:35:06.521Z,32
2018-07-06T03:36:06.279Z,32
2018-07-06T03:37:06.517Z,32
2018-07-06T03:38:06.035Z,36
2018-07-06T03:39:06.265Z,44
2018-07-06T03:40:06.290Z,48
2018-07-06T03:41:06.539Z,52
2018-07-06T03:42:06.255Z,56
2018-07-06T03:43:06.016Z,56
2018-07-06T03:44:06.035Z,56
2018-07-06T03:45:06.319Z,56
2018-07-06T03:46:06.279Z,56
2018-07-06T03:47:06.531Z,56
2018-07-06T03:48:06.059Z,56
2018-07-06T03:49:06.019Z,56
2018-07-06T03:50:06.270Z,52
2018-07-06T03:51:06.309Z,56
2018-07-06T03:52:06.047Z,64
2018-07-06T03:53:06.305Z,64
2018-07-06T03:54:06.022Z,64
2018-07-06T03:55:06.731Z,64
2018-07-06T03:56:05.778Z,56
2018-07-06T03:57:06.047Z,48
2018-07-06T03:58:06.283Z,44
2018-07-06T03:59:06.552Z,48
2018-07-06T04:00:06.292Z,52
2018-07-06T04:01:06.821Z,56
2018-07-06T04:02:06.299Z,60
2018-07-06T04:03:06.056Z,60
2018-07-06T04:04:06.299Z,68
2018-07-06T04:05:06.286Z,72
2018-07-06T04:06:06.315Z,84
2018-07-06T04:07:06.051Z,96
2018-07-06T04:08:06.308Z,100
2018-07-06T04:09:06.303Z,112
2018-07-06T04:10:06.290Z,116
2018-07-06T04:11:06.298Z,120
2018-07-06T04:12:06.056Z,120
2018-07-06T04:13:06.052Z,124
2018-07-06T04:14:06.055Z,132
2018-07-06T04:15:06.300Z,144
2018-07-06T04:16:06.939Z,160
2018-07-06T04:17:06.310Z,188
2018-07-06T04:18:06.324Z,216
2018-07-06T04:19:06.306Z,244
2018-07-06T04:20:06.569Z,284
2018-07-06T04:21:06.061Z,312
2018-07-06T04:22:06.310Z,332
2018-07-06T04:23:06.059Z,348
2018-07-06T04:24:06.061Z,352
2018-07-06T04:25:06.573Z,360
2018-07-06T04:26:06.607Z,360
2018-07-06T04:27:06.308Z,344
2018-07-06T04:28:07.201Z,320
2018-07-06T04:29:06.072Z,304
2018-07-06T04:30:06.570Z,304
2018-07-06T04:31:06.566Z,292
2018-07-06T04:32:06.331Z,264
2018-07-06T04:33:05.811Z,236
2018-07-06T04:34:05.817Z,224
2018-07-06T04:35:06.583Z,244
2018-07-06T04:36:06.492Z,252
2018-07-06T04:37:06.314Z,256
2018-07-06T04:38:06.564Z,276
2018-07-06T04:39:06.578Z,296
2018-07-06T04:40:06.331Z,324
2018-07-06T04:41:06.345Z,360
2018-07-06T04:42:06.581Z,388
2018-07-06T04:43:06.318Z,416
2018-07-06T04:44:06.322Z,456
2018-07-06T04:45:06.334Z,492
2018-07-06T04:46:05.828Z,504
2018-07-06T04:47:06.076Z,512
2018-07-06T04:48:06.594Z,536
2018-07-06T04:49:06.093Z,572
2018-07-06T04:50:06.096Z,640
2018-07-06T04:51:06.797Z,700
2018-07-06T04:52:06.345Z,704
2018-07-06T04:53:06.618Z,692
2018-07-06T04:54:06.623Z,700
2018-07-06T04:55:06.341Z,676
2018-07-06T04:56:06.604Z,656
2018-07-06T04:57:06.357Z,636
2018-07-06T04:58:06.601Z,648
2018-07-06T04:59:06.091Z,664
2018-07-06T05:00:06.107Z,728
2018-07-06T05:01:06.381Z,756
2018-07-06T05:02:06.369Z,792
2018-07-06T05:03:06.110Z,820
2018-07-06T05:04:06.372Z,848
2018-07-06T05:05:06.371Z,908
2018-07-06T05:06:06.611Z,928
2018-07-06T05:07:06.365Z,972
2018-07-06T05:08:05.859Z,992
2018-07-06T05:09:06.108Z,1004
2018-07-06T05:10:06.628Z,980
2018-07-06T05:11:06.631Z,984
2018-07-06T05:12:06.631Z,956
2018-07-06T05:13:06.372Z,876
2018-07-06T05:14:06.391Z,820
2018-07-06T05:15:06.120Z,800
2018-07-06T05:16:06.372Z,800
2018-07-06T05:17:06.261Z,808
2018-07-06T05:18:05.870Z,808
2018-07-06T05:19:06.121Z,792
2018-07-06T05:20:06.375Z,752
2018-07-06T05:21:05.880Z,740
2018-07-06T05:22:06.147Z,748
2018-07-06T05:23:06.116Z,776
2018-07-06T05:24:06.654Z,824
2018-07-06T05:25:06.401Z,872
2018-07-06T05:26:06.389Z,868
2018-07-06T05:27:05.893Z,888
2018-07-06T05:28:06.651Z,912
2018-07-06T05:29:05.898Z,944
2018-07-06T05:30:06.134Z,992
2018-07-06T05:31:06.155Z,1028
2018-07-06T05:32:06.963Z,1044
2018-07-06T05:33:06.160Z,1060
2018-07-06T05:34:06.405Z,1072
2018-07-06T05:35:06.407Z,1076
2018-07-06T05:36:06.384Z,1136
2018-07-06T05:37:06.167Z,1188
2018-07-06T05:38:06.172Z,1280
2018-07-06T05:39:06.691Z,1340
2018-07-06T05:40:06.160Z,1444
2018-07-06T05:41:06.211Z,1504
2018-07-06T05:42:06.421Z,1504
2018-07-06T05:43:06.419Z,1548
2018-07-06T05:44:06.680Z,1592
2018-07-06T05:45:06.218Z,1524
2018-07-06T05:46:06.168Z,1432
2018-07-06T05:47:06.681Z,1424
2018-07-06T05:48:06.665Z,1436
2018-07-06T05:49:06.418Z,1296
2018-07-06T05:50:06.691Z,1164
2018-07-06T05:51:06.426Z,1132
2018-07-06T05:52:06.713Z,1200
2018-07-06T05:53:06.184Z,1276
2018-07-06T05:54:06.183Z,1368
2018-07-06T05:55:06.721Z,1452
2018-07-06T05:56:06.195Z,1460
2018-07-06T05:57:06.192Z,1420
2018-07-06T05:58:06.626Z,1312
2018-07-06T05:59:06.717Z,1268
2018-07-06T06:00:06.458Z,1304
2018-07-06T06:01:06.458Z,1308
2018-07-06T06:02:06.710Z,1256
2018-07-06T06:03:06.703Z,1264
2018-07-06T06:04:05.957Z,1268
2018-07-06T06:05:06.211Z,1248
2018-07-06T06:06:06.211Z,1208
2018-07-06T06:07:06.213Z,1184
2018-07-06T06:08:05.951Z,1208
2018-07-06T06:09:06.478Z,1240
2018-07-06T06:10:06.457Z,1288
2018-07-06T06:11:05.964Z,1344
2018-07-06T06:12:06.771Z,1336
2018-07-06T06:13:06.719Z,1292
2018-07-06T06:14:06.462Z,1232
2018-07-06T06:15:06.211Z,1100
2018-07-06T06:16:06.843Z,932
2018-07-06T06:17:06.507Z,860
2018-07-06T06:18:06.527Z,820
2018-07-06T06:19:06.738Z,784
2018-07-06T06:20:06.573Z,760
2018-07-06T06:21:06.486Z,724
2018-07-06T06:22:06.502Z,688
2018-07-06T06:23:06.744Z,660
2018-07-06T06:24:06.232Z,640
2018-07-06T06:25:06.252Z,644
2018-07-06T06:26:06.240Z,696
2018-07-06T06:27:06.501Z,744
2018-07-06T06:28:06.753Z,756
2018-07-06T06:29:06.241Z,732
2018-07-06T06:30:06.492Z,720
2018-07-06T06:31:06.515Z,724
2018-07-06T06:32:06.239Z,776
2018-07-06T06:33:06.849Z,896
2018-07-06T06:34:06.683Z,1036
2018-07-06T06:35:06.806Z,1120
2018-07-06T06:36:06.251Z,1200
2018-07-06T06:37:06.501Z,1180
2018-07-06T06:38:06.262Z,1136
2018-07-06T06:39:06.519Z,1112
2018-07-06T06:40:06.774Z,1092
2018-07-06T06:41:06.510Z,1144
2018-07-06T06:42:06.023Z,1200
2018-07-06T06:43:06.773Z,1180
2018-07-06T06:44:06.760Z,1116
2018-07-06T06:45:06.525Z,1120
2018-07-06T06:46:06.520Z,1172
2018-07-06T06:47:06.277Z,1208
2018-07-06T06:48:06.535Z,1148
2018-07-06T06:49:06.542Z,1128
2018-07-06T06:50:06.293Z,1156
2018-07-06T06:51:06.274Z,1256
2018-07-06T06:52:06.552Z,1372
2018-07-06T06:53:07.021Z,1400
2018-07-06T06:54:06.778Z,1376
2018-07-06T06:55:06.286Z,1384
2018-07-06T06:56:06.529Z,1280
2018-07-06T06:57:06.790Z,1332
2018-07-06T06:58:06.782Z,1444
2018-07-06T06:59:06.711Z,1504
2018-07-06T07:00:06.775Z,1604
2018-07-06T07:01:07.145Z,1696
2018-07-06T07:02:06.285Z,1836
2018-07-06T07:03:06.278Z,1976
2018-07-06T07:04:06.286Z,1880
2018-07-06T07:05:06.547Z,1816
2018-07-06T07:06:06.045Z,1792
2018-07-06T07:07:06.576Z,1696
2018-07-06T07:08:06.583Z,1500
2018-07-06T07:09:06.819Z,1372
2018-07-06T07:10:06.300Z,1380
2018-07-06T07:11:06.293Z,1480
2018-07-06T07:12:06.822Z,1556
2018-07-06T07:13:06.561Z,1632
2018-07-06T07:14:06.983Z,1676
2018-07-06T07:15:06.316Z,1824
2018-07-06T07:16:06.324Z,1976
2018-07-06T07:17:06.814Z,2064
2018-07-06T07:18:06.831Z,2072
2018-07-06T07:19:06.330Z,2096
2018-07-06T07:20:06.326Z,2148
2018-07-06T07:21:06.936Z,2096
2018-07-06T07:22:06.830Z,1992
2018-07-06T07:23:06.817Z,1948
2018-07-06T07:24:06.328Z,2032
2018-07-06T07:25:06.331Z,2292
2018-07-06T07:26:06.580Z,2472
2018-07-06T07:27:06.590Z,2616
2018-07-06T07:28:06.831Z,2700
2018-07-06T07:29:06.598Z,2680
2018-07-06T07:30:06.690Z,2664
2018-07-06T07:31:06.587Z,2680
2018-07-06T07:32:06.849Z,2828
2018-07-06T07:33:06.348Z,2840
2018-07-06T07:34:06.842Z,2636
2018-07-06T07:35:06.843Z,2460
2018-07-06T07:36:06.602Z,2340
2018-07-06T07:37:06.865Z,2216
2018-07-06T07:38:06.600Z,2060
2018-07-06T07:39:06.920Z,2008
2018-07-06T07:40:06.847Z,2108
2018-07-06T07:41:06.365Z,2196
2018-07-06T07:42:06.617Z,2288
2018-07-06T07:43:06.607Z,2440
2018-07-06T07:44:06.617Z,2776
2018-07-06T07:45:06.625Z,3232
2018-07-06T07:46:06.360Z,3544
2018-07-06T07:47:06.381Z,3708
2018-07-06T07:48:06.624Z,3760
2018-07-06T07:49:06.614Z,3836
2018-07-06T07:50:06.358Z,3888
2018-07-06T07:51:06.626Z,3836
2018-07-06T07:52:06.883Z,3788
2018-07-06T07:53:06.620Z,3936
2018-07-06T07:54:06.377Z,4236
2018-07-06T07:55:06.777Z,4748
2018-07-06T07:56:06.376Z,5200
2018-07-06T07:57:06.636Z,5296
2018-07-06T07:58:06.644Z,5212
2018-07-06T07:59:06.387Z,5212
2018-07-06T08:00:06.645Z,5508
2018-07-06T08:01:07.562Z,5712
2018-07-06T08:02:06.727Z,5772
2018-07-06T08:03:06.904Z,5884
2018-07-06T08:04:06.699Z,6112
2018-07-06T08:05:06.681Z,6524
2018-07-06T08:06:06.136Z,6880
2018-07-06T08:07:06.667Z,7192
2018-07-06T08:08:06.652Z,7604
2018-07-06T08:09:06.651Z,8016
2018-07-06T08:10:06.671Z,8240
2018-07-06T08:11:06.423Z,7984
2018-07-06T08:12:06.673Z,7576
2018-07-06T08:13:06.423Z,7052
2018-07-06T08:14:09.713Z,6572
2018-07-06T08:15:06.911Z,6424
2018-07-06T08:16:06.677Z,6676
2018-07-06T08:17:06.179Z,7060
2018-07-06T08:18:06.678Z,7300
2018-07-06T08:19:06.681Z,7540
2018-07-06T08:20:06.931Z,7800
2018-07-06T08:21:06.693Z,8152
2018-07-06T08:22:06.447Z,8552
2018-07-06T08:23:06.440Z,8912
2018-07-06T08:24:06.449Z,9068
2018-07-06T08:25:06.956Z,9012
2018-07-06T08:26:06.702Z,8740
2018-07-06T08:27:06.745Z,8384
2018-07-06T08:28:06.879Z,7936
2018-07-06T08:29:06.717Z,7620
2018-07-06T08:30:06.466Z,7212
2018-07-06T08:31:06.465Z,6820
2018-07-06T08:32:06.737Z,6608
2018-07-06T08:33:07.002Z,6560
2018-07-06T08:34:06.217Z,6824
2018-07-06T08:35:06.480Z,7204
2018-07-06T08:36:06.778Z,7632
2018-07-06T08:37:06.981Z,8080
2018-07-06T08:38:06.728Z,8216
2018-07-06T08:39:06.524Z,8192
2018-07-06T08:40:06.506Z,8128
2018-07-06T08:41:06.491Z,7920
2018-07-06T08:42:06.747Z,7756
2018-07-06T08:43:06.752Z,7528
2018-07-06T08:44:07.006Z,7236
2018-07-06T08:45:07.502Z,7184
2018-07-06T08:46:06.781Z,7708
2018-07-06T08:47:06.811Z,8576
2018-07-06T08:48:07.107Z,9224
2018-07-06T08:49:06.784Z,9548
2018-07-06T08:50:06.794Z,9916
2018-07-06T08:51:07.052Z,10564
2018-07-06T08:52:06.778Z,11112
2018-07-06T08:53:06.791Z,11416
2018-07-06T08:54:06.786Z,11512
2018-07-06T08:55:06.793Z,11132
2018-07-06T08:56:06.293Z,10596
2018-07-06T08:57:06.811Z,10444
2018-07-06T08:58:07.103Z,9688
2018-07-06T08:59:06.297Z,9348
2018-07-06T09:00:06.811Z,9168
2018-07-06T09:01:06.799Z,9096
2018-07-06T09:02:06.562Z,8912
2018-07-06T09:03:06.564Z,8808
2018-07-06T09:04:07.583Z,8760
2018-07-06T09:05:06.853Z,8952
2018-07-06T09:06:06.867Z,8956
2018-07-06T09:07:06.853Z,8800
2018-07-06T09:08:06.858Z,8484
2018-07-06T09:09:06.855Z,8072
2018-07-06T09:10:06.871Z,7940
2018-07-06T09:11:06.616Z,7884
2018-07-06T09:12:06.604Z,7788
2018-07-06T09:13:07.182Z,7604
2018-07-06T09:14:07.137Z,7220
2018-07-06T09:15:06.915Z,6788
2018-07-06T09:16:06.939Z,6500
2018-07-06T09:17:06.637Z,6204
2018-07-06T09:18:06.649Z,5868
2018-07-06T09:19:06.897Z,5932
2018-07-06T09:20:08.401Z,6060
2018-07-06T09:21:06.645Z,6032
2018-07-06T09:22:06.901Z,6156
2018-07-06T09:23:07.473Z,6196
2018-07-06T09:24:07.196Z,6248
2018-07-06T09:25:06.922Z,6184
2018-07-06T09:26:08.406Z,5976
2018-07-06T09:27:07.198Z,6056
2018-07-06T09:28:06.923Z,6456
2018-07-06T09:29:06.929Z,6936
2018-07-06T09:30:06.985Z,7440
2018-07-06T09:31:06.458Z,8068
2018-07-06T09:32:06.968Z,8448
2018-07-06T09:33:06.440Z,8864
2018-07-06T09:34:06.444Z,9552
2018-07-06T09:35:06.950Z,10588
2018-07-06T09:36:06.695Z,11844
2018-07-06T09:37:06.959Z,12784
2018-07-06T09:38:07.007Z,13096
2018-07-06T09:39:06.720Z,13040
2018-07-06T09:40:06.975Z,12660
2018-07-06T09:41:06.988Z,11092
2018-07-06T09:42:06.726Z,9920
2018-07-06T09:43:06.734Z,8944
2018-07-06T09:44:07.280Z,8388
2018-07-06T09:45:06.982Z,8032
2018-07-06T09:46:06.753Z,7680
2018-07-06T09:47:06.750Z,7712
2018-07-06T09:48:07.012Z,7620
2018-07-06T09:49:07.016Z,7684
2018-07-06T09:50:07.056Z,7924
2018-07-06T09:51:07.709Z,8232
2018-07-06T09:52:07.342Z,8792
2018-07-06T09:53:07.050Z,9292
2018-07-06T09:54:06.802Z,12836
2018-07-06T09:55:06.789Z,11564
2018-07-06T09:56:07.048Z,13904
2018-07-06T09:57:06.797Z,14408
2018-07-06T09:58:07.252Z,14748
2018-07-06T09:59:06.546Z,14880
2018-07-06T10:00:07.059Z,14868
2018-07-06T10:01:07.350Z,14524
2018-07-06T10:02:07.054Z,14156
2018-07-06T10:03:07.087Z,14060
2018-07-06T10:04:07.084Z,11012
2018-07-06T10:05:06.827Z,11392
2018-07-06T10:06:07.396Z,11904
2018-07-06T10:07:07.119Z,11684
2018-07-06T10:08:07.375Z,11000
2018-07-06T10:09:06.583Z,10828
2018-07-06T10:10:06.908Z,11144
2018-07-06T10:11:07.327Z,11180
2018-07-06T10:12:07.122Z,10848
2018-07-06T10:13:07.469Z,10520
2018-07-06T10:14:07.137Z,11940
2018-07-06T10:15:07.125Z,12348
2018-07-06T10:16:07.164Z,12476
2018-07-06T10:17:07.473Z,12696
2018-07-06T10:18:07.146Z,12928
2018-07-06T10:19:06.891Z,13568
2018-07-06T10:20:06.896Z,14184
2018-07-06T10:21:06.908Z,14640
2018-07-06T10:22:07.270Z,14988
2018-07-06T10:23:07.164Z,15556
2018-07-06T10:54:41.487Z,12748
2018-07-06T10:55:41.309Z,12136
2018-07-06T10:56:41.248Z,11976
2018-07-06T10:57:40.736Z,12048
2018-07-06T10:58:41.231Z,12400
2018-07-06T10:59:40.974Z,13904
2018-07-06T11:00:41.334Z,13280
2018-07-06T11:01:41.245Z,11068
2018-07-06T11:02:41.505Z,9412
2018-07-06T11:03:41.249Z,8228
2018-07-06T11:04:41.544Z,7516
2018-07-06T11:05:41.260Z,6992
2018-07-06T11:06:41.001Z,6792
2018-07-06T11:07:41.276Z,6840
2018-07-06T11:08:41.299Z,6944
2018-07-06T11:09:41.296Z,7064
2018-07-06T11:10:41.362Z,7192
2018-07-06T11:11:41.635Z,7444
2018-07-06T11:12:41.291Z,7828
2018-07-06T11:13:41.554Z,8108
2018-07-06T11:14:41.554Z,8044
2018-07-06T11:15:41.319Z,7636
2018-07-06T11:16:41.309Z,7228
2018-07-06T11:17:41.555Z,6828
2018-07-06T11:18:41.073Z,6500
2018-07-06T11:19:41.103Z,6432
2018-07-06T11:20:41.610Z,6844
2018-07-06T11:21:41.589Z,7432
2018-07-06T11:22:41.122Z,7832
2018-07-06T11:23:41.353Z,7840
2018-07-06T11:24:41.356Z,7836
2018-07-06T11:25:41.393Z,7076
2018-07-06T11:26:41.633Z,6648
2018-07-06T11:27:41.111Z,5244
2018-07-06T11:28:41.129Z,4472
2018-07-06T11:29:41.624Z,3948
2018-07-06T11:30:41.621Z,3644
2018-07-06T11:31:41.136Z,3644
2018-07-06T11:32:41.139Z,3944
2018-07-06T11:33:41.385Z,4488
2018-07-06T11:34:41.150Z,5268
2018-07-06T11:35:41.487Z,6200
2018-07-06T11:36:41.390Z,6836
2018-07-06T11:37:41.656Z,6856
2018-07-06T11:38:41.679Z,6692
2018-07-06T11:39:41.155Z,6404
2018-07-06T11:40:41.439Z,6312
2018-07-06T11:41:41.415Z,6388
2018-07-06T11:42:41.702Z,6628
2018-07-06T11:43:41.428Z,7004
2018-07-06T11:44:41.426Z,7588
2018-07-06T11:45:41.732Z,8108
2018-07-06T11:46:41.689Z,8684
2018-07-06T11:47:41.430Z,9216
2018-07-06T11:48:41.199Z,9920
2018-07-06T11:49:41.697Z,10564
2018-07-06T11:50:41.696Z,11100
2018-07-06T11:51:41.694Z,11448
2018-07-06T11:52:41.207Z,11676
2018-07-06T11:53:41.209Z,11768
2018-07-06T11:54:41.211Z,11784
2018-07-06T11:55:41.784Z,11664
2018-07-06T11:56:41.733Z,11876
2018-07-06T11:57:41.220Z,12424
2018-07-06T11:58:41.262Z,12928
2018-07-06T11:59:41.749Z,12908
2018-07-06T12:00:41.774Z,11404
2018-07-06T12:01:41.266Z,10860
2018-07-06T12:02:41.257Z,10404
2018-07-06T12:03:41.515Z,10604
2018-07-06T12:04:41.827Z,8560
2018-07-06T12:05:41.511Z,7984
2018-07-06T12:06:41.521Z,7320
2018-07-06T12:07:41.505Z,5852
2018-07-06T12:08:41.287Z,5284
2018-07-06T12:09:41.542Z,4796
2018-07-06T12:10:41.613Z,4424
2018-07-06T12:11:41.797Z,4096
2018-07-06T12:12:41.538Z,4024
2018-07-06T12:13:41.294Z,4028
2018-07-06T12:14:41.040Z,3984
2018-07-06T12:15:41.989Z,4024
2018-07-06T12:16:41.803Z,4168
2018-07-06T12:17:41.561Z,4344
2018-07-06T12:18:41.813Z,4436
2018-07-06T12:19:41.560Z,4496
2018-07-06T12:20:41.570Z,4600
2018-07-06T12:21:41.326Z,4780
2018-07-06T12:22:41.575Z,4896
2018-07-06T12:23:41.569Z,5124
2018-07-06T12:24:41.593Z,5476
2018-07-06T12:25:41.903Z,5864
2018-07-06T12:26:41.587Z,6188
2018-07-06T12:27:41.852Z,6484
2018-07-06T12:28:41.590Z,6896
2018-07-06T12:29:41.590Z,7348
2018-07-06T12:30:41.957Z,7660
2018-07-06T12:31:41.615Z,7816
2018-07-06T12:32:41.858Z,7916
2018-07-06T12:33:41.876Z,7968
2018-07-06T12:34:42.392Z,8012
2018-07-06T12:35:41.414Z,8188
2018-07-06T12:36:41.959Z,8692
2018-07-06T12:37:41.395Z,9204
2018-07-06T12:38:41.615Z,9492
2018-07-06T12:39:41.627Z,9776
2018-07-06T12:40:41.627Z,9936
2018-07-06T12:41:42.218Z,10020
2018-07-06T12:42:41.627Z,10160
2018-07-06T12:43:41.881Z,10248
2018-07-06T12:44:41.629Z,10156
2018-07-06T12:45:41.464Z,11292
2018-07-06T12:46:41.912Z,11432
2018-07-06T12:47:41.631Z,11596
2018-07-06T12:48:42.050Z,11688
2018-07-06T12:49:41.911Z,12084
2018-07-06T12:50:41.699Z,12600
2018-07-06T12:51:41.659Z,12784
2018-07-06T12:52:41.396Z,12924
2018-07-06T12:53:41.655Z,12868
2018-07-06T12:54:41.661Z,12828
2018-07-06T12:55:41.463Z,12924
2018-07-06T12:56:41.166Z,12860
2018-07-06T12:57:41.675Z,12732
2018-07-06T12:58:42.172Z,12468
2018-07-06T12:59:41.441Z,11628
2018-07-06T13:00:41.532Z,10900
2018-07-06T13:01:41.700Z,11652
2018-07-06T13:02:41.477Z,10280
2018-07-06T13:03:41.195Z,10040
2018-07-06T13:04:41.461Z,10896
2018-07-06T13:05:41.965Z,10780
2018-07-06T13:06:41.470Z,10612
2018-07-06T13:07:41.714Z,10500
2018-07-06T13:08:41.716Z,10440
2018-07-06T13:09:41.736Z,10444
2018-07-06T13:10:41.860Z,10428
2018-07-06T13:11:41.733Z,10352
2018-07-06T13:12:41.748Z,10316
2018-07-06T13:13:41.997Z,10344
2018-07-06T13:14:41.746Z,10452
2018-07-06T13:15:41.787Z,10468
2018-07-06T13:16:41.747Z,10460
2018-07-06T13:17:42.051Z,10456
2018-07-06T13:18:41.522Z,10464
2018-07-06T13:19:41.577Z,10368
2018-07-06T13:20:41.626Z,10176
2018-07-06T13:21:41.778Z,10084
2018-07-06T13:22:41.533Z,9972
2018-07-06T13:23:41.791Z,9988
2018-07-06T13:24:42.054Z,10064
2018-07-06T13:25:41.819Z,10020
2018-07-06T13:26:41.817Z,10004
2018-07-06T13:27:42.062Z,9932
2018-07-06T13:28:41.829Z,9868
2018-07-06T13:29:41.814Z,9984
2018-07-06T13:30:42.173Z,10272
2018-07-06T13:31:42.086Z,10448
2018-07-06T13:32:41.580Z,10544
2018-07-06T13:33:42.154Z,10900
2018-07-06T13:34:41.591Z,11072
2018-07-06T13:35:41.877Z,11188
2018-07-06T13:36:42.109Z,11444
2018-07-06T13:37:41.854Z,11524
2018-07-06T13:38:42.118Z,11564
2018-07-06T13:39:41.622Z,11580
2018-07-06T13:40:42.211Z,11628
2018-07-06T13:41:42.010Z,11704
2018-07-06T13:42:41.883Z,11272
2018-07-06T13:43:42.133Z,10512
2018-07-06T13:44:42.008Z,9324
2018-07-06T13:45:41.957Z,8652
2018-07-06T13:46:42.047Z,7092
2018-07-06T13:47:42.161Z,6632
2018-07-06T13:48:41.663Z,6320
2018-07-06T13:49:41.937Z,6180
2018-07-06T13:50:42.425Z,6108
2018-07-06T13:51:42.180Z,6160
2018-07-06T13:52:41.934Z,6320
2018-07-06T13:53:41.945Z,6660
2018-07-06T13:54:41.952Z,7028
2018-07-06T13:55:42.219Z,7348
2018-07-06T13:56:41.717Z,7616
2018-07-06T13:57:42.221Z,8012
2018-07-06T13:58:42.000Z,8380
2018-07-06T13:59:41.969Z,8608
2018-07-06T14:00:41.994Z,8720
2018-07-06T14:01:41.988Z,8792
2018-07-06T14:02:41.728Z,8820
2018-07-06T14:03:41.749Z,8792
2018-07-06T14:04:42.550Z,8760
2018-07-06T14:05:42.092Z,8764
2018-07-06T14:06:41.509Z,8780
2018-07-06T14:07:41.759Z,8752
2018-07-06T14:08:41.536Z,8616
2018-07-06T14:09:42.019Z,8480
2018-07-06T14:10:42.128Z,8176